Time;durP1;ratioP1;P1;durP2;ratioP2;P2;SDS_P1;SDS_P2;PMS_P1;PMS_P2;Temp;Humidity;BMP_temperature;BMP_pressure;BME280_temperature;BME280_humidity;BME280_pressure;Samples;Min_cycle;Max_cycle;Signal;HPM_P1;HPM_P2
2023/08/03 00:00:31;;;;;;;6.60;1.70;;;;;;;25.33;36.20;97996.41;5135408;27;20037;-46
2023/08/03 00:02:57;;;;;;;9.45;3.72;;;;;;;25.42;36.60;98003.38;5134145;27;20023;-46
2023/08/03 00:05:24;;;;;;;6.68;2.60;;;;;;;25.41;36.76;98012.53;5134089;27;20115;-46
2023/08/03 00:07:50;;;;;;;8.27;2.65;;;;;;;25.58;37.20;98009.06;5135058;27;20421;-45
2023/08/03 00:10:17;;;;;;;6.97;1.65;;;;;;;25.65;37.00;97998.63;5133834;27;20057;-45
2023/08/03 00:12:45;;;;;;;13.85;3.00;;;;;;;25.40;36.98;97999.44;5133845;27;20027;-46
2023/08/03 00:15:12;;;;;;;19.52;3.38;;;;;;;25.23;37.36;97998.31;5133849;27;20015;-45
2023/08/03 00:17:38;;;;;;;11.15;2.33;;;;;;;25.22;36.86;97998.59;5135069;27;20027;-45
2023/08/03 00:20:05;;;;;;;7.82;2.47;;;;;;;25.17;36.35;98009.47;5135065;27;20024;-46
2023/08/03 00:22:31;;;;;;;14.70;2.33;;;;;;;25.24;37.02;98009.81;5133767;27;20034;-46
2023/08/03 00:24:58;;;;;;;12.05;2.58;;;;;;;25.58;36.28;98014.44;5134986;27;20034;-45
2023/08/03 00:27:24;;;;;;;10.82;2.17;;;;;;;25.89;35.54;98002.72;5134935;27;20080;-46
2023/08/03 00:29:50;;;;;;;16.52;2.90;;;;;;;26.12;34.62;98000.69;5133584;27;20446;-46
2023/08/03 00:32:19;;;;;;;10.63;2.85;;;;;;;26.34;34.76;97998.88;5133525;27;20038;-46
2023/08/03 00:34:44;;;;;;;19.30;3.60;;;;;;;26.42;34.45;98001.56;5133494;27;20026;-45
2023/08/03 00:37:11;;;;;;;7.93;2.83;;;;;;;26.57;34.21;97994.84;5133427;27;20053;-46
2023/08/03 00:39:37;;;;;;;10.98;2.22;;;;;;;26.58;33.94;98007.25;5134438;27;20016;-46
2023/08/03 00:42:04;;;;;;;15.18;2.65;;;;;;;26.47;33.56;98000.59;5132834;27;20041;-46
2023/08/03 00:44:29;;;;;;;8.52;2.85;;;;;;;26.37;33.76;97995.56;5134606;27;20050;-46
2023/08/03 00:46:55;;;;;;;22.83;4.13;;;;;;;26.22;34.03;97994.97;5133142;27;20035;-46
2023/08/03 00:49:28;;;;;;;8.30;2.63;;;;;;;26.08;33.98;97997.84;5134533;27;20019;-46
2023/08/03 00:51:57;;;;;;;14.30;2.47;;;;;;;26.07;33.86;98003.53;5134414;27;20030;-46
2023/08/03 00:54:24;;;;;;;14.43;3.35;;;;;;;26.06;33.58;98012.72;5133067;27;20027;-46
2023/08/03 00:56:49;;;;;;;16.65;3.10;;;;;;;26.11;33.98;98020.63;5134242;27;20099;-46
2023/08/03 00:59:15;;;;;;;12.07;2.92;;;;;;;26.11;33.83;98016.00;5134676;27;20479;-46
2023/08/03 01:01:41;;;;;;;8.27;2.83;;;;;;;26.05;33.50;98011.13;5132875;27;20027;-46
2023/08/03 01:04:07;;;;;;;20.20;3.53;;;;;;;25.93;33.77;98017.16;5133033;27;20488;-46
2023/08/03 01:06:33;;;;;;;14.13;3.60;;;;;;;25.90;33.78;98023.97;5132498;27;20043;-46
2023/08/03 01:09:01;;;;;;;17.95;4.15;;;;;;;25.76;34.25;98031.38;5132836;27;20023;-46
2023/08/03 01:11:29;;;;;;;13.63;2.75;;;;;;;25.56;34.40;98043.53;5132708;27;20112;-45
2023/08/03 01:13:56;;;;;;;14.27;3.08;;;;;;;25.37;34.83;98035.75;5134005;27;20023;-46
2023/08/03 01:16:25;;;;;;;15.50;3.75;;;;;;;25.17;34.71;98037.09;5133863;27;20027;-45
2023/08/03 01:18:51;;;;;;;14.80;3.38;;;;;;;25.01;35.29;98041.31;5133904;27;20019;-46
2023/08/03 01:21:21;;;;;;;23.75;3.85;;;;;;;24.99;35.69;98035.47;5133804;27;20072;-46
2023/08/03 01:23:48;;;;;;;11.23;3.03;;;;;;;24.99;35.43;98035.47;5132442;27;20435;-45
2023/08/03 01:26:13;;;;;;;22.40;4.75;;;;;;;25.01;35.57;98034.06;5133740;27;20050;-45
2023/08/03 01:28:39;;;;;;;14.73;3.65;;;;;;;25.08;35.42;98042.44;5132331;27;20066;-46
2023/08/03 01:31:05;;;;;;;20.25;3.97;;;;;;;25.10;35.50;98037.56;5133659;27;20027;-46
2023/08/03 01:33:31;;;;;;;17.52;3.17;;;;;;;25.15;35.03;98039.31;5132248;27;20030;-46
2023/08/03 01:35:57;;;;;;;15.20;2.80;;;;;;;25.18;35.15;98043.28;5132218;27;20118;-46
2023/08/03 01:38:22;;;;;;;10.73;2.80;;;;;;;25.20;34.86;98051.81;5115054;27;20484;-46
2023/08/03 01:40:48;;;;;;;18.95;3.80;;;;;;;25.18;34.90;98054.03;5133359;27;20019;-46
2023/08/03 01:43:14;;;;;;;10.18;2.78;;;;;;;25.12;34.52;98059.53;5133436;27;20027;-46
2023/08/03 01:45:40;;;;;;;10.90;2.65;;;;;;;25.04;34.40;98049.53;5133414;27;20370;-46
2023/08/03 01:48:05;;;;;;;8.40;2.45;;;;;;;25.00;34.27;98059.31;5133362;27;20027;-46
2023/08/03 01:50:31;;;;;;;11.68;2.20;;;;;;;24.91;34.45;98067.34;5133270;27;20049;-46
2023/08/03 01:52:57;;;;;;;17.55;3.17;;;;;;;24.75;34.49;98057.31;5133202;27;20466;-46
2023/08/03 01:55:22;;;;;;;16.77;2.92;;;;;;;24.65;34.32;98074.47;5131867;27;20023;-46
2023/08/03 01:57:48;;;;;;;15.25;3.00;;;;;;;24.58;34.63;98077.59;5133123;27;20031;-46
2023/08/03 02:00:14;;;;;;;13.63;2.80;;;;;;;24.55;34.29;98080.91;5131780;27;20015;-46
2023/08/03 02:02:39;;;;;;;14.07;2.83;;;;;;;24.51;34.13;98079.94;5131795;27;20027;-46
2023/08/03 02:05:06;;;;;;;11.05;2.53;;;;;;;24.40;34.41;98076.66;5133074;27;20023;-46
2023/08/03 02:07:55;;;;;;;16.77;2.72;;;;;;;24.32;34.54;98080.88;5132687;27;20054;-46
2023/08/03 02:10:24;;;;;;;10.10;1.88;;;;;;;24.22;34.53;98083.03;5131719;27;20031;-46
2023/08/03 02:12:50;;;;;;;9.68;2.13;;;;;;;24.27;34.57;98082.91;5131602;27;20130;-46
2023/08/03 02:15:16;;;;;;;16.55;2.65;;;;;;;24.18;34.81;98082.03;5132959;27;20101;-46
2023/08/03 02:17:43;;;;;;;16.98;3.30;;;;;;;24.16;34.82;98068.94;5131477;27;20024;-46
2023/08/03 02:20:09;;;;;;;17.45;3.08;;;;;;;24.20;34.96;98077.16;5132857;27;20055;-46
2023/08/03 02:22:35;;;;;;;12.65;2.47;;;;;;;24.17;34.78;98083.16;5131513;27;20027;-46
2023/08/03 02:25:01;;;;;;;13.30;2.60;;;;;;;24.08;34.94;98083.84;5131532;27;20038;-46
2023/08/03 02:27:27;;;;;;;9.63;1.88;;;;;;;23.77;35.01;98091.00;5132807;27;20068;-45
2023/08/03 02:29:52;;;;;;;7.57;1.80;;;;;;;23.35;35.61;98083.00;5132739;27;20106;-46
2023/08/03 02:32:19;;;;;;;13.05;2.38;;;;;;;22.93;36.44;98079.50;5132760;27;20027;-46
2023/08/03 02:34:45;;;;;;;14.00;3.20;;;;;;;22.60;36.90;98081.44;5132754;27;20027;-45
2023/08/03 02:37:11;;;;;;;7.68;2.00;;;;;;;22.44;37.35;98084.38;5114206;28;20071;-45
2023/08/03 02:39:36;;;;;;;8.48;1.90;;;;;;;22.32;37.63;98094.75;5131414;28;20083;-45
2023/08/03 02:42:02;;;;;;;7.63;2.10;;;;;;;22.16;37.84;98088.00;5132678;27;20454;-46
2023/08/03 02:44:28;;;;;;;10.20;2.45;;;;;;;21.96;38.25;98089.91;5132651;28;20029;-46
2023/08/03 02:46:53;;;;;;;9.50;1.90;;;;;;;21.73;38.78;98095.03;5132881;27;20066;-45
2023/08/03 02:49:19;;;;;;;12.18;2.38;;;;;;;21.62;39.16;98090.09;5131254;28;20034;-45
2023/08/03 02:51:45;;;;;;;12.20;2.83;;;;;;;21.66;39.59;98097.25;5131211;28;20117;-46
2023/08/03 02:54:12;;;;;;;5.45;1.70;;;;;;;21.77;39.46;98089.88;5132564;27;20106;-46
2023/08/03 02:56:38;;;;;;;10.27;2.53;;;;;;;21.74;39.15;98091.25;5132396;27;20496;-46
2023/08/03 02:59:04;;;;;;;7.75;1.70;;;;;;;21.64;39.39;98090.59;5132577;27;20023;-46
2023/08/03 03:01:30;;;;;;;5.82;1.90;;;;;;;21.52;39.57;98096.34;5131144;28;20023;-46
2023/08/03 03:03:55;;;;;;;8.05;1.98;;;;;;;21.40;39.42;98090.59;5133935;27;20019;-46
2023/08/03 03:06:21;;;;;;;6.78;1.80;;;;;;;21.30;39.77;98086.19;5136287;27;20043;-46
2023/08/03 03:08:46;;;;;;;6.88;1.73;;;;;;;21.20;39.85;98096.97;5135073;27;20023;-46
2023/08/03 03:11:12;;;;;;;6.43;1.75;;;;;;;21.12;39.60;98093.84;5136381;27;20031;-46
2023/08/03 03:13:41;;;;;;;9.77;1.50;;;;;;;21.06;39.70;98097.66;5136368;27;20023;-46
2023/08/03 03:16:06;;;;;;;6.30;1.80;;;;;;;21.07;39.85;98093.91;5136352;27;20023;-46
2023/08/03 03:18:32;;;;;;;12.65;1.92;;;;;;;21.10;39.84;98097.88;5136119;27;20030;-46
2023/08/03 03:20:58;;;;;;;6.85;1.73;;;;;;;21.12;39.37;98101.06;5136261;27;20531;-45
2023/08/03 03:23:23;;;;;;;9.25;2.00;;;;;;;21.14;39.51;98094.34;5136200;27;20100;-46
2023/08/03 03:25:49;;;;;;;6.03;1.77;;;;;;;21.22;39.78;98092.16;5134759;27;20061;-46
2023/08/03 03:28:15;;;;;;;6.97;1.63;;;;;;;21.25;39.77;98103.06;5134751;27;20027;-46
2023/08/03 03:30:43;;;;;;;4.68;1.40;;;;;;;21.31;39.62;98096.59;5135986;27;20449;-46
2023/08/03 03:33:08;;;;;;;7.25;1.23;;;;;;;21.32;39.51;98092.03;5134626;27;20015;-46
2023/08/03 03:35:34;;;;;;;4.70;1.48;;;;;;;21.26;39.17;98093.16;5134590;27;20034;-45
2023/08/03 03:38:00;;;;;;;4.03;1.52;;;;;;;21.19;39.54;98101.53;5135846;27;20022;-45
2023/08/03 03:40:25;;;;;;;6.85;1.50;;;;;;;21.16;39.68;98099.41;5135839;27;20041;-45
2023/08/03 03:42:51;;;;;;;7.50;1.70;;;;;;;21.14;39.58;98099.69;5134464;27;20016;-46
2023/08/03 03:45:17;;;;;;;7.30;1.30;;;;;;;21.09;39.65;98101.66;5134442;27;20047;-46
2023/08/03 03:47:42;;;;;;;5.72;1.60;;;;;;;21.05;39.47;98106.75;5135662;27;20474;-46
2023/08/03 03:50:09;;;;;;;10.32;1.80;;;;;;;21.05;39.67;98106.75;5134311;27;20027;-45
2023/08/03 03:52:34;;;;;;;7.95;1.98;;;;;;;21.10;39.70;98100.56;5135552;27;20019;-45
2023/08/03 03:55:00;;;;;;;8.95;1.85;;;;;;;21.12;39.67;98101.84;5135560;27;20027;-46
2023/08/03 03:57:26;;;;;;;10.38;2.00;;;;;;;21.10;39.77;98100.56;5135347;27;20391;-45
2023/08/03 03:59:51;;;;;;;5.47;1.50;;;;;;;21.08;39.58;98102.72;5135534;27;20064;-46
2023/08/03 04:02:20;;;;;;;8.60;1.88;;;;;;;21.06;39.86;98100.31;5134073;27;20079;-45
2023/08/03 04:04:45;;;;;;;10.52;1.83;;;;;;;21.02;39.90;98103.84;5135353;27;20480;-46
2023/08/03 04:07:11;;;;;;;9.00;1.63;;;;;;;21.02;39.79;98107.28;5135031;27;20123;-45
2023/08/03 04:09:36;;;;;;;14.35;2.40;;;;;;;21.43;40.27;98109.56;5135252;27;20015;-46
2023/08/03 04:12:03;;;;;;;17.35;2.20;;;;;;;21.97;39.88;98104.81;5134189;27;20087;-45
2023/08/03 04:14:28;;;;;;;12.43;2.40;;;;;;;22.45;39.01;98102.00;5133386;27;20484;-46
2023/08/03 04:16:54;;;;;;;13.38;2.28;;;;;;;22.70;38.75;98110.69;5132915;27;20045;-46
2023/08/03 04:19:20;;;;;;;10.45;2.20;;;;;;;22.49;38.96;98104.88;5134024;27;20030;-46
2023/08/03 04:21:45;;;;;;;14.48;3.60;;;;;;;22.64;38.87;98103.84;5134963;27;20096;-46
2023/08/03 04:24:11;;;;;;;11.52;2.20;;;;;;;22.69;38.67;98098.41;5135013;27;20043;-46
2023/08/03 04:26:36;;;;;;;9.30;2.00;;;;;;;22.84;38.70;98106.16;5133603;27;20073;-45
2023/08/03 04:29:02;;;;;;;24.90;3.70;;;;;;;22.88;38.41;98107.16;5133528;27;20035;-46
2023/08/03 04:31:28;;;;;;;36.33;4.13;;;;;;;22.89;38.53;98103.38;5133736;27;20027;-46
2023/08/03 04:33:53;;;;;;;52.80;4.30;;;;;;;22.53;38.77;98103.22;5134777;27;20090;-46
2023/08/03 04:36:19;;;;;;;10.13;2.08;;;;;;;22.03;39.70;98103.66;5134712;27;20015;-46
2023/08/03 04:38:45;;;;;;;12.25;1.95;;;;;;;21.59;40.54;98112.03;5134598;27;20015;-46
2023/08/03 04:41:10;;;;;;;8.63;2.67;;;;;;;21.73;40.71;98113.72;5134657;27;20400;-46
2023/08/03 04:43:36;;;;;;;11.95;3.10;;;;;;;21.46;40.61;98114.31;5134553;27;20104;-46
2023/08/03 04:46:02;;;;;;;8.82;2.53;;;;;;;20.87;41.66;98110.13;5134559;27;20059;-46
2023/08/03 04:48:27;;;;;;;11.18;2.40;;;;;;;20.38;42.74;98116.38;5134495;27;20042;-46
2023/08/03 04:50:53;;;;;;;8.43;2.28;;;;;;;20.08;43.34;98113.66;5133068;27;20051;-46
2023/08/03 04:53:22;;;;;;;12.13;2.63;;;;;;;20.00;44.02;98116.91;5133367;27;20026;-45
2023/08/03 04:55:47;;;;;;;17.02;3.25;;;;;;;20.01;44.29;98117.69;5134296;27;20030;-46
2023/08/03 04:58:13;;;;;;;12.40;2.28;;;;;;;20.10;44.06;98110.69;5133145;27;20086;-45
2023/08/03 05:00:39;;;;;;;9.88;2.22;;;;;;;20.13;44.10;98113.63;5134273;27;20118;-46
2023/08/03 05:03:04;;;;;;;6.82;1.70;;;;;;;20.13;44.48;98113.63;5134309;27;20054;-45
2023/08/03 05:05:30;;;;;;;7.80;1.70;;;;;;;20.08;44.01;98120.84;5134102;27;20436;-45
2023/08/03 05:07:55;;;;;;;7.63;1.58;;;;;;;20.59;42.52;98119.72;5133956;27;20065;-45
2023/08/03 05:10:21;;;;;;;10.30;1.85;;;;;;;21.52;41.05;98115.06;5133021;27;20438;-46
2023/08/03 05:12:47;;;;;;;10.05;1.90;;;;;;;22.49;39.48;98118.25;5132655;27;20023;-46
2023/08/03 05:15:12;;;;;;;8.55;2.05;;;;;;;23.72;37.66;98114.13;5132622;27;20400;-45
2023/08/03 05:17:38;;;;;;;8.10;2.08;;;;;;;25.03;35.56;98115.09;5133837;27;20052;-46
2023/08/03 05:20:04;;;;;;;14.98;3.30;;;;;;;25.52;34.66;98115.91;5133955;27;20385;-46
2023/08/03 05:22:33;;;;;;;12.60;4.03;;;;;;;25.91;33.95;98110.78;5133830;27;20511;-46
2023/08/03 05:24:58;;;;;;;9.95;2.28;;;;;;;25.89;33.86;98110.28;5133870;27;20392;-46
2023/08/03 05:27:24;;;;;;;10.73;2.63;;;;;;;25.71;34.47;98120.22;5132011;27;20026;-46
2023/08/03 05:29:51;;;;;;;17.48;2.88;;;;;;;25.58;34.49;98121.16;5133752;27;20030;-46
2023/08/03 05:32:16;;;;;;;8.70;2.45;;;;;;;25.34;34.48;98127.72;5133724;27;20028;-46
2023/08/03 05:34:42;;;;;;;19.75;3.17;;;;;;;25.20;35.24;98127.78;5133623;27;20042;-45
2023/08/03 05:37:08;;;;;;;23.25;3.50;;;;;;;25.19;35.26;98128.88;5133517;27;20094;-46
2023/08/03 05:39:33;;;;;;;43.28;5.10;;;;;;;25.10;35.36;98136.91;5132203;27;20046;-46
2023/08/03 05:42:00;;;;;;;28.98;4.65;;;;;;;25.02;35.04;98128.81;5132119;27;20019;-46
2023/08/03 05:44:27;;;;;;;59.28;4.65;;;;;;;25.13;35.57;98143.53;5133349;27;20432;-46
2023/08/03 05:46:52;;;;;;;26.40;3.28;;;;;;;25.21;35.10;98133.94;5133379;27;20111;-46
2023/08/03 05:49:18;;;;;;;31.50;5.03;;;;;;;25.21;35.06;98145.53;5132315;27;20118;-46
2023/08/03 05:51:44;;;;;;;39.90;4.47;;;;;;;25.35;35.99;98139.25;5133228;27;20023;-46
2023/08/03 05:54:15;;;;;;;28.95;3.55;;;;;;;25.16;36.52;98139.47;5133547;27;20548;-46
2023/08/03 05:56:41;;;;;;;29.48;3.58;;;;;;;24.93;37.08;98134.13;5133147;27;20046;-46
2023/08/03 05:59:22;;;;;;;35.30;4.88;;;;;;;25.01;37.44;98133.41;5133532;27;20015;-46
2023/08/03 06:01:49;;;;;;;22.23;3.47;;;;;;;25.18;37.13;98135.38;5133221;27;20492;-46
2023/08/03 06:04:16;;;;;;;26.48;3.97;;;;;;;26.44;35.65;98136.56;5133073;27;20030;-45
2023/08/03 06:06:43;;;;;;;25.77;3.13;;;;;;;29.13;30.98;98129.84;5132808;27;20043;-46
2023/08/03 06:09:14;;;;;;;25.88;3.60;;;;;;;30.91;28.40;98121.09;5131712;27;20144;-46
2023/08/03 06:11:40;;;;;;;16.05;2.67;;;;;;;32.54;26.37;98122.34;5133020;27;20507;-46
2023/08/03 06:14:15;;;;;;;11.65;2.55;;;;;;;33.89;24.76;98119.47;5133004;27;20051;-46
2023/08/03 06:16:42;;;;;;;;;;;;;;;34.91;23.65;98122.16;5133277;27;20019;-46
2023/08/03 06:19:09;;;;;;;8.23;2.40;;;;;;;33.44;23.22;98121.16;5131607;27;19954;-46
2023/08/03 06:21:35;;;;;;;17.05;2.40;;;;;;;32.35;24.49;98127.81;5131854;27;20039;-46
2023/08/03 06:24:01;;;;;;;23.67;4.07;;;;;;;31.26;26.49;98124.66;5132795;27;20023;-46
2023/08/03 06:26:30;;;;;;;27.55;4.35;;;;;;;30.50;27.75;98134.72;5133060;27;20027;-46
2023/08/03 06:28:56;;;;;;;21.88;2.58;;;;;;;29.88;27.78;98136.81;5132828;27;20024;-46
2023/08/03 06:31:35;;;;;;;19.33;2.45;;;;;;;29.39;28.49;98129.53;5132652;27;20075;-46
2023/08/03 06:34:02;;;;;;;16.30;1.58;;;;;;;29.25;28.36;98126.38;5132808;27;20063;-46
2023/08/03 06:36:28;;;;;;;7.50;1.50;;;;;;;29.29;27.81;98127.28;5132608;27;20020;-46
2023/08/03 06:38:58;;;;;;;14.15;1.60;;;;;;;28.99;28.13;98130.16;5134252;27;20396;-46
2023/08/03 06:41:25;;;;;;;10.70;1.70;;;;;;;28.62;28.18;98126.59;5136955;27;20019;-46
2023/08/03 06:43:53;;;;;;;9.65;1.63;;;;;;;28.35;28.55;98136.81;5136969;27;20019;-46
2023/08/03 06:46:18;;;;;;;11.25;1.77;;;;;;;27.98;28.57;98139.34;5136837;27;20443;-46
2023/08/03 06:48:44;;;;;;;7.65;1.55;;;;;;;27.86;28.74;98144.63;5137169;27;20155;-46
2023/08/03 06:51:10;;;;;;;16.92;2.40;;;;;;;27.75;29.34;98148.81;5135557;27;20019;-46
2023/08/03 06:53:36;;;;;;;14.40;1.55;;;;;;;27.67;29.77;98142.38;5136671;27;20529;-46
2023/08/03 06:56:01;;;;;;;22.73;2.30;;;;;;;28.99;28.35;98137.47;5136729;27;20102;-46
2023/08/03 06:58:27;;;;;;;29.08;1.92;;;;;;;31.33;25.59;98137.63;5136491;27;20370;-46
2023/08/03 07:00:53;;;;;;;28.98;2.50;;;;;;;31.77;25.03;98134.75;5135329;27;20441;-46
2023/08/03 07:03:19;;;;;;;17.83;1.85;;;;;;;31.68;24.62;98131.47;5136601;27;20031;-46
2023/08/03 07:05:45;;;;;;;90.20;7.05;;;;;;;30.97;25.27;98142.16;5136518;27;20015;-46
2023/08/03 07:08:11;;;;;;;54.28;3.80;;;;;;;30.19;26.27;98141.59;5136363;27;20416;-46
2023/08/03 07:10:37;;;;;;;42.10;3.75;;;;;;;29.48;26.87;98135.63;5118328;27;20582;-46
2023/08/03 07:13:03;;;;;;;16.35;1.83;;;;;;;29.14;27.25;98144.97;5136412;27;20535;-46
2023/08/03 07:15:33;;;;;;;9.13;1.45;;;;;;;28.81;28.09;98142.28;5136268;27;20030;-46
2023/08/03 07:18:04;;;;;;;16.15;1.92;;;;;;;28.71;28.30;98143.50;5136160;27;20019;-46
2023/08/03 07:20:29;;;;;;;10.38;1.30;;;;;;;29.16;27.28;98139.22;5134906;27;20500;-46
2023/08/03 07:22:55;;;;;;;6.78;1.45;;;;;;;29.77;26.99;98133.81;5136210;27;20102;-46
2023/08/03 07:25:21;;;;;;;9.93;1.60;;;;;;;30.13;26.42;98142.97;5135090;27;20031;-46
2023/08/03 07:27:47;;;;;;;4.95;1.20;;;;;;;29.92;26.76;98137.72;5136080;27;20024;-46
2023/08/03 07:30:12;;;;;;;7.22;1.45;;;;;;;30.04;26.91;98143.13;5134708;27;20031;-46
2023/08/03 07:32:38;;;;;;;13.13;1.45;;;;;;;30.39;26.01;98139.84;5136254;27;20023;-47
2023/08/03 07:35:04;;;;;;;6.57;1.58;;;;;;;30.89;25.73;98140.44;5134647;27;20542;-46
2023/08/03 07:37:31;;;;;;;3.88;1.10;;;;;;;31.45;25.34;98134.03;5135915;27;20019;-46
2023/08/03 07:39:57;;;;;;;12.75;2.35;;;;;;;32.35;24.88;98136.72;5135912;27;20068;-46
2023/08/03 07:42:23;;;;;;;10.27;1.95;;;;;;;33.62;23.00;98135.03;5134485;27;20031;-46
2023/08/03 07:44:52;;;;;;;10.30;1.63;;;;;;;35.48;21.22;98125.34;5135833;27;20484;-46
2023/08/03 07:47:21;;;;;;;8.25;1.33;;;;;;;35.97;20.37;98123.28;5135720;27;20034;-46
2023/08/03 07:49:48;;;;;;;12.57;1.90;;;;;;;35.29;21.12;98133.78;5135502;27;20031;-46
2023/08/03 07:52:14;;;;;;;15.35;2.05;;;;;;;34.60;21.58;98127.69;5135624;27;20465;-47
2023/08/03 07:54:40;;;;;;;10.13;1.50;;;;;;;34.12;22.35;98134.91;5135592;27;20128;-46
2023/08/03 07:57:06;;;;;;;16.23;2.45;;;;;;;33.42;22.91;98132.41;5134136;27;20067;-46
2023/08/03 07:59:32;;;;;;;5.07;1.17;;;;;;;32.72;23.49;98147.16;5134173;27;20400;-46
2023/08/03 08:01:59;;;;;;;44.88;3.75;;;;;;;32.11;23.94;98148.66;5134102;27;20031;-46
2023/08/03 08:04:24;;;;;;;4.63;1.08;;;;;;;31.72;24.81;98147.81;5135412;27;20046;-46
2023/08/03 08:06:50;;;;;;;5.53;1.55;;;;;;;32.02;24.51;98150.81;5081404;27;1405668;-46
2023/08/03 08:09:16;;;;;;;4.55;1.40;;;;;;;33.59;23.30;98154.81;5135197;27;20039;-46
2023/08/03 08:11:41;;;;;;;162.15;11.65;;;;;;;35.85;21.39;98145.47;5135307;27;20346;-47
2023/08/03 08:14:07;;;;;;;21.85;2.70;;;;;;;36.83;20.26;98139.19;5133876;27;20019;-46
2023/08/03 08:16:33;;;;;;;20.60;1.95;;;;;;;36.64;19.65;98140.31;5135036;27;20023;-46
2023/08/03 08:18:59;;;;;;;6.55;1.27;;;;;;;36.90;19.94;98137.22;5133845;27;20518;-47
2023/08/03 08:21:24;;;;;;;2.80;0.85;;;;;;;36.02;19.78;98136.56;5133707;27;20029;-46
2023/08/03 08:23:50;;;;;;;10.13;1.70;;;;;;;35.38;20.88;98131.53;5133694;27;20031;-46
2023/08/03 08:26:17;;;;;;;2.95;1.20;;;;;;;36.12;20.88;98130.38;5134921;27;20553;-47
2023/08/03 08:28:44;;;;;;;5.55;1.15;;;;;;;37.68;19.77;98126.63;5133647;27;20037;-46
2023/08/03 08:31:10;;;;;;;4.70;1.10;;;;;;;39.07;17.78;98127.88;5134796;27;20508;-46
2023/08/03 08:33:37;;;;;;;7.80;1.40;;;;;;;39.72;17.16;98125.31;5133583;27;20027;-47
2023/08/03 08:36:03;;;;;;;8.02;1.42;;;;;;;40.40;16.82;98122.94;5134749;27;20031;-49
2023/08/03 08:38:30;;;;;;;4.20;1.02;;;;;;;40.50;16.10;98122.75;5133455;27;20501;-49
2023/08/03 08:40:56;;;;;;;4.05;1.20;;;;;;;39.09;17.19;98138.47;5134644;27;20072;-48
2023/08/03 08:43:22;;;;;;;5.13;0.95;;;;;;;37.80;18.17;98133.66;5133357;27;20031;-49
2023/08/03 08:45:48;;;;;;;3.95;1.13;;;;;;;36.45;19.70;98144.94;5133281;27;20378;-46
2023/08/03 08:48:14;;;;;;;9.88;2.28;;;;;;;35.09;20.39;98142.16;5134550;27;20027;-47
2023/08/03 08:50:41;;;;;;;12.63;2.70;;;;;;;33.98;21.26;98144.47;5134793;27;20404;-46
2023/08/03 08:53:07;;;;;;;16.00;3.65;;;;;;;33.23;22.60;98141.44;5133119;27;20019;-46
2023/08/03 08:55:33;;;;;;;5.45;1.58;;;;;;;32.88;23.08;98154.41;5134417;27;20096;-46
2023/08/03 08:57:59;;;;;;;3.35;0.60;;;;;;;32.84;23.01;98154.38;5134292;27;20480;-46
2023/08/03 09:00:27;;;;;;;6.55;1.00;;;;;;;32.66;22.86;98159.47;5132972;27;20023;-46
2023/08/03 09:02:59;;;;;;;87.28;7.82;;;;;;;33.40;22.97;98155.69;5133586;27;20553;-46
2023/08/03 09:05:26;;;;;;;30.05;3.80;;;;;;;35.17;20.92;98151.22;5132766;27;20604;-46
2023/08/03 09:08:18;;;;;;;46.88;4.45;;;;;;;35.19;21.24;98160.63;5115533;27;20062;-46
2023/08/03 09:10:55;;;;;;;43.67;4.20;;;;;;;35.06;21.15;98147.63;5129805;27;20549;-46
2023/08/03 09:13:36;;;;;;;6.82;1.80;;;;;;;35.85;20.22;98153.66;5134084;27;20042;-47
2023/08/03 09:16:03;;;;;;;4.07;1.35;;;;;;;35.25;20.52;98144.66;5133968;27;20023;-46
2023/08/03 09:18:31;;;;;;;18.45;1.85;;;;;;;33.92;21.29;98151.38;5132826;27;20027;-46
2023/08/03 09:21:11;;;;;;;16.85;2.45;;;;;;;32.49;24.21;98151.75;5133834;27;20019;-46
2023/08/03 09:23:37;;;;;;;13.35;1.90;;;;;;;32.04;24.26;98146.59;5133784;27;20016;-46
2023/08/03 09:26:03;;;;;;;4.13;0.93;;;;;;;31.64;24.56;98157.72;5133758;27;20053;-46
2023/08/03 09:28:36;;;;;;;7.28;1.55;;;;;;;31.38;25.03;98155.53;5132512;27;20123;-46
2023/08/03 09:31:03;;;;;;;29.27;3.30;;;;;;;33.22;23.56;98144.50;5133618;27;20047;-47
2023/08/03 09:33:29;;;;;;;11.85;2.08;;;;;;;35.33;21.45;98142.78;5133695;27;20108;-46
2023/08/03 09:36:14;;;;;;;3.13;1.38;;;;;;;37.74;19.78;98133.28;5133882;27;20445;-47
2023/08/03 09:38:40;;;;;;;;;;;;;;;38.91;18.43;98125.63;5134199;27;20050;-49
2023/08/03 09:41:05;;;;;;;8.50;1.25;;;;;;;37.57;18.22;98132.13;5133531;27;19919;-49
2023/08/03 09:43:32;;;;;;;10.43;1.52;;;;;;;36.19;19.42;98126.91;5132212;27;20034;-46
2023/08/03 09:45:58;;;;;;;5.85;3.95;;;;;;;34.64;20.53;98149.53;5132158;27;20400;-46
2023/08/03 09:48:25;;;;;;;12.07;1.55;;;;;;;34.80;20.90;98150.09;5133399;27;20034;-46
2023/08/03 09:50:57;;;;;;;12.25;1.40;;;;;;;36.94;19.69;98134.47;5133309;27;20033;-46
2023/08/03 09:53:35;;;;;;;3.88;1.10;;;;;;;39.03;17.95;98140.06;5132063;27;20037;-47
2023/08/03 09:56:01;;;;;;;13.82;1.70;;;;;;;41.06;15.96;98138.81;5132054;27;20039;-49
2023/08/03 09:58:42;;;;;;;4.50;1.23;;;;;;;42.64;14.22;98133.03;5133413;27;20055;-50
2023/08/03 10:01:12;;;;;;;6.30;1.50;;;;;;;43.49;13.69;98123.03;5131826;27;20023;-50
2023/08/03 10:03:41;;;;;;;3.53;0.93;;;;;;;42.27;13.91;98132.22;5131881;27;20011;-50
2023/08/03 10:06:36;;;;;;;3.53;1.00;;;;;;;40.53;14.87;98118.41;5131724;27;20045;-50
2023/08/03 10:09:06;;;;;;;4.05;1.05;;;;;;;39.98;15.77;98136.78;5130927;27;20043;-50
2023/08/03 10:11:38;;;;;;;8.05;1.20;;;;;;;39.96;16.16;98127.41;5133027;27;20035;-49
2023/08/03 10:14:05;;;;;;;3.42;0.82;;;;;;;40.07;15.92;98136.31;5133001;27;20035;-49
2023/08/03 10:16:36;;;;;;;3.65;0.85;;;;;;;39.74;15.74;98130.38;5131722;27;20024;-49
2023/08/03 10:19:03;;;;;;;33.35;3.00;;;;;;;38.43;17.34;98125.53;5131816;27;20115;-49
2023/08/03 10:21:29;;;;;;;6.72;1.10;;;;;;;37.49;18.34;98125.88;5131596;27;20114;-49
2023/08/03 10:24:12;;;;;;;6.68;1.20;;;;;;;38.43;17.33;98122.81;5131630;27;20035;-49
2023/08/03 10:26:37;;;;;;;4.30;1.10;;;;;;;38.33;17.07;98121.69;5132897;27;20030;-50
2023/08/03 10:29:04;;;;;;;4.13;1.23;;;;;;;38.74;17.18;98121.06;5133069;27;20023;-50
2023/08/03 10:31:30;;;;;;;7.53;1.27;;;;;;;39.40;17.03;98114.66;5132756;27;20027;-49
2023/08/03 10:33:56;;;;;;;3.70;0.85;;;;;;;39.53;16.53;98121.19;5132817;27;20038;-49
2023/08/03 10:36:27;;;;;;;2.97;0.80;;;;;;;39.09;16.52;98111.00;5132960;27;20028;-49
2023/08/03 10:38:54;;;;;;;2.55;0.98;;;;;;;38.90;17.00;98104.88;5132622;27;20076;-49
2023/08/03 10:41:35;;;;;;;4.55;1.25;;;;;;;39.25;16.37;98103.00;5132683;27;20012;-49
2023/08/03 10:44:07;;;;;;;5.70;1.60;;;;;;;39.92;16.49;98098.03;5132676;27;20023;-50
2023/08/03 10:46:34;;;;;;;3.75;1.15;;;;;;;40.59;15.77;98089.25;5132912;27;20031;-49
2023/08/03 10:48:59;;;;;;;3.22;0.73;;;;;;;40.71;15.70;98096.91;5131322;28;20031;-49
2023/08/03 10:51:25;;;;;;;2.90;1.00;;;;;;;40.13;15.62;98099.69;5131243;28;20033;-50
2023/08/03 10:53:51;;;;;;;2.63;0.82;;;;;;;38.94;16.60;98093.88;5131417;28;20027;-49
2023/08/03 10:56:17;;;;;;;2.67;0.80;;;;;;;37.80;16.87;98098.81;5132526;27;20044;-49
2023/08/03 10:58:47;;;;;;;1.98;0.68;;;;;;;37.77;17.50;98097.66;5132510;28;20030;-49
2023/08/03 11:01:25;;;;;;;3.53;0.60;;;;;;;38.11;16.95;98091.66;5131176;28;20050;-49
2023/08/03 11:03:51;;;;;;;25.38;2.58;;;;;;;38.91;16.58;98089.19;5131155;27;20019;-49
2023/08/03 11:06:17;;;;;;;6.15;1.05;;;;;;;38.93;16.19;98087.59;5131125;28;20030;-49
2023/08/03 11:08:47;;;;;;;4.55;0.98;;;;;;;39.24;16.36;98097.91;5130706;28;20112;-50
2023/08/03 11:11:16;;;;;;;5.10;1.20;;;;;;;39.67;15.70;98089.25;5131048;28;20416;-50
2023/08/03 11:13:47;;;;;;;1.98;0.60;;;;;;;39.70;15.88;98093.91;5132625;27;20369;-49
2023/08/03 11:16:18;;;;;;;10.40;1.73;;;;;;;39.01;16.21;98085.59;5132381;27;20042;-50
2023/08/03 11:18:48;;;;;;;5.40;1.00;;;;;;;37.57;17.85;98091.81;5132248;27;20036;-49
2023/08/03 11:21:14;;;;;;;5.93;1.77;;;;;;;37.87;18.10;98089.78;5132348;27;20492;-49
2023/08/03 11:23:40;;;;;;;3.05;0.55;;;;;;;38.38;16.97;98093.09;5131020;27;20080;-49
2023/08/03 11:26:08;;;;;;;3.13;0.60;;;;;;;38.33;17.16;98091.53;5135447;27;20027;-50
2023/08/03 11:28:41;;;;;;;21.27;1.85;;;;;;;38.50;17.46;98081.66;5136159;27;20027;-49